Date,TemperatureHighF,TemperatureAvgF,TemperatureLowF,DewpointHighF,DewpointAvgF,DewpointLowF,HumidityHigh,HumidityAvg,HumidityLow,PressureMaxIn,PressureMinIn,WindSpeedMaxMPH,WindSpeedAvgMPH,GustSpeedMaxMPH,PrecipitationSumIn
2013-6-1,78,72,68,53,47,41,57,43,27,29.78,29.64,13,3,21,0.00
2013-6-2,69,58,46,50,38,24,65,47,35,30.02,29.58,17,5,23,0.00
2013-6-3,67,52,37,29,24,20,59,36,17,30.08,29.96,16,3,17,0.00
2013-6-4,68,56,41,30,26,22,53,33,22,30.20,30.08,8,1,11,0.00
2013-6-5,66,59,54,29,26,23,36,29,20,30.20,30.02,9,2,13,0.00
2013-6-6,67,59,54,34,30,26,42,34,25,30.05,29.90,9,2,13,0.00
2013-6-7,69,58,48,34,30,27,52,36,23,29.93,29.84,12,2,12,0.00
2013-6-8,70,59,47,40,33,27,58,38,25,30.05,29.90,6,1,8,0.00
2013-6-9,75,63,49,45,36,30,63,38,23,30.11,29.93,11,2,16,0.00
2013-6-10,68,64,61,55,46,33,70,54,29,29.93,29.75,5,1,10,0.00
2013-6-11,78,70,63,55,47,40,73,48,28,29.87,29.78,12,3,15,0.00
2013-6-12,77,67,57,54,46,39,67,48,32,29.90,29.67,8,1,11,0.00
2013-6-13,66,62,59,55,51,48,75,67,62,29.72,29.67,6,1,8,0.00
2013-6-16,80,76,69,51,38,30,53,27,17,29.84,29.78,17,8,20,0.00
2013-6-17,75,66,56,50,42,36,65,43,27,29.96,29.84,11,2,16,0.00
2013-6-18,67,60,52,44,34,24,68,41,23,30.08,29.93,10,3,12,0.00
2013-6-19,72,59,44,36,29,26,57,34,19,30.17,30.08,8,1,9,0.00
2013-6-20,78,63,48,44,33,29,60,35,18,30.17,30.11,6,0,10,0.00
2013-6-21,83,69,0,49,40,0,63,37,20,30.17,29.96,6,1,10,0.00
2013-6-22,86,76,69,51,47,42,50,36,24,30.05,29.93,14,2,14,0.00
2013-6-23,88,76,0,61,47,0,74,38,19,30.02,29.87,14,3,17,0.00
2013-6-24,85,76,0,52,46,0,50,36,21,29.99,29.87,15,4,16,0.00
2013-6-25,79,72,0,54,47,0,56,40,30,29.90,29.78,14,3,17,0.00
2013-6-26,84,73,62,57,49,44,68,45,26,29.84,29.72,6,1,8,0.00
2013-6-27,84,73,66,62,53,44,81,51,25,29.72,29.64,11,2,15,0.00
2013-6-28,73,66,63,61,57,48,85,72,43,29.64,29.52,11,2,13,0.00
2013-6-29,67,64,61,60,58,53,91,82,63,29.75,29.58,8,0,8,0.00
2013-6-30,75,65,57,56,47,32,85,57,25,29.99,29.75,8,2,12,0.00